Thunder radar more information blitzortung!


Löydät sääaseman tiedot myös:

European Weather Network

Finland Weather Exchange

Weather Underground

AWEKAS



Weather Underground säähistoriasivu

Päivittäin yhteenveto Heinäkuu 29, 2017 Yksiköt:  Englantilaiset    Metriset   Molemmat
« Edellinen Päivä
Seuraava Päivä »
Päivittäin Viikoittain Kuukausittain Vuosittain Mukautettu
  Korkea: Matala: Keskiarvo:
Lämpötila: TemperatureC °F 12.2 °F 17.9 °F
Kastepiste: DewpointC °F 9.7 °F 13.4 °F
Kosteus: Humidity % 48 % 77 %
Tuulen nopeus: WindSpeedKMH mph 0.0 mph 3.2 mph
Tuulenpuuska: WindSpeedGustKMH mph - -
Tuuli:- - SSW
Ilmanpaine: PressurehPa in 999.9 in -
Sade: 1.8 in    
Historical Graphs
 
 
Taulukkotiedot Heinäkuu 29, 2017
Aika Lämpötila Kastepiste Ilmanpaine Tuuli Tuulen nopeus Tuulenpuuska Kosteus Sademäärä (tunneittain)
TemperatureC °F DewpointC °F PressurehPa in Calm     Humidity % HourlyPrecipMM in
00:00 17.3 °F 16.4 °F 1000.6 in Calm     94 % 0.0 in
00:15 17.2 °F 16.2 °F 1000.6 in Calm     94 % 0.0 in
00:30 17.1 °F 16.2 °F 1000.6 in Calm     95 % 0.0 in
00:45 17.1 °F 16.2 °F 1000.6 in Calm     95 % 0.5 in
01:00 17.2 °F 16.5 °F 1000.2 in Calm     96 % 0.8 in
01:15 17.2 °F 16.5 °F 1000.2 in Calm     96 % 1.0 in
01:30 17.2 °F 16.5 °F 1000.2 in Calm     96 % 1.0 in
01:45 17.1 °F 16.4 °F 1000.2 in Calm     96 % 0.5 in
02:00 17.1 °F 16.6 °F 1000.2 in Calm     97 % 0.3 in
02:15 17.1 °F 16.6 °F 999.9 in Calm   6.4 mph 97 % 0.0 in
02:30 17.1 °F 16.6 °F 1000.2 in Calm     97 % 0.0 in
02:45 17.1 °F 16.6 °F 1000.2 in Calm   1.6 mph 97 % 0.0 in
03:00 17.1 °F 16.6 °F 1000.2 in Calm   1.6 mph 97 % 0.0 in
03:15 16.4 °F 15.6 °F 1000.6 in SSW 8.0 mph 22.5 mph 95 % 0.0 in
03:30 15.9 °F 15.1 °F 1000.6 in SSW 4.8 mph 12.9 mph 95 % 0.3 in
03:45 15.7 °F 14.9 °F 1000.6 in SSW 4.8 mph 14.5 mph 95 % 0.3 in
04:00 15.7 °F 15.0 °F 1000.6 in SSW 3.2 mph 11.3 mph 96 % 0.5 in
04:15 15.5 °F 14.9 °F 1000.9 in South 4.8 mph 14.5 mph 96 % 0.5 in
04:30 15.3 °F 14.7 °F 1000.9 in South 3.2 mph 16.1 mph 96 % 0.5 in
04:45 15.2 °F 14.6 °F 1000.9 in South 3.2 mph 14.5 mph 96 % 0.5 in
05:00 15.2 °F 14.5 °F 1000.6 in SSW 4.8 mph 19.3 mph 96 % 0.3 in
05:15 15.1 °F 14.5 °F 1000.9 in South 3.2 mph 11.3 mph 96 % 0.3 in
05:30 15.1 °F 14.5 °F 1000.6 in South 4.8 mph 12.9 mph 96 % 0.3 in
05:45 15.1 °F 14.4 °F 1000.9 in SSW 6.4 mph 19.3 mph 96 % 0.3 in
06:00 15.1 °F 14.4 °F 1000.9 in SSW 6.4 mph 14.5 mph 96 % 0.3 in
06:15 15.1 °F 14.6 °F 1000.9 in SSW 6.4 mph 16.1 mph 97 % 0.0 in
06:30 15.0 °F 14.5 °F 1000.9 in SSW 6.4 mph 19.3 mph 97 % 0.0 in
06:45 14.9 °F 14.5 °F 1000.9 in SSW 6.4 mph 19.3 mph 97 % 0.0 in
07:00 14.9 °F 14.3 °F 1001.2 in SSW 11.3 mph 30.6 mph 96 % 0.0 in
07:15 15.0 °F 14.4 °F 1001.2 in SSW 9.7 mph 20.9 mph 96 % 0.0 in
07:30 15.0 °F 14.2 °F 1001.6 in SSW 9.7 mph 22.5 mph 95 % 0.0 in
07:45 15.0 °F 14.2 °F 1001.6 in SSW 9.7 mph 24.1 mph 95 % 0.0 in
08:00 15.0 °F 14.2 °F 1001.9 in SSW 9.7 mph 24.1 mph 95 % 0.0 in
08:15 15.0 °F 14.2 °F 1002.3 in SSW 8.0 mph 20.9 mph 95 % 0.0 in
08:30 15.0 °F 14.0 °F 1002.3 in SSW 6.4 mph 17.7 mph 94 % 0.0 in
08:45 15.1 °F 13.9 °F 1002.6 in SSW 8.0 mph 22.5 mph 93 % 0.0 in
09:00 15.2 °F 14.0 °F 1002.9 in SSW 6.4 mph 19.3 mph 93 % 0.0 in
09:15 15.4 °F 14.3 °F 1003.3 in SSW 6.4 mph 19.3 mph 93 % 0.0 in
09:30 16.2 °F 14.7 °F 1003.6 in SSW 8.0 mph 20.9 mph 91 % 0.0 in
09:45 17.0 °F 14.8 °F 1003.6 in SSW 9.7 mph 24.1 mph 87 % 0.0 in
10:00 17.5 °F 14.6 °F 1003.6 in SSW 9.7 mph 25.7 mph 83 % 0.0 in
10:15 17.9 °F 14.8 °F 1003.9 in SSW 8.0 mph 17.7 mph 82 % 0.0 in
10:30 17.9 °F 14.4 °F 1003.9 in SSW 11.3 mph 27.4 mph 80 % 0.0 in
10:45 17.7 °F 14.4 °F 1004.3 in SSW 6.4 mph 19.3 mph 81 % 0.0 in
11:00 18.3 °F 14.6 °F 1004.3 in SSW 9.7 mph 22.5 mph 79 % 0.0 in
11:15 18.9 °F 14.6 °F 1004.3 in SSW 8.0 mph 27.4 mph 76 % 0.0 in
11:30 19.6 °F 14.8 °F 1004.3 in SSW 9.7 mph 24.1 mph 74 % 0.0 in
11:45 19.6 °F 15.1 °F 1004.3 in SSW 6.4 mph 17.7 mph 75 % 0.0 in
12:00 20.1 °F 14.5 °F 1004.3 in SSW 6.4 mph 20.9 mph 70 % 0.0 in
12:15 20.1 °F 14.6 °F 1004.6 in SSW 8.0 mph 27.4 mph 71 % 0.0 in
12:30 20.3 °F 14.7 °F 1004.6 in SSW 9.7 mph 25.7 mph 70 % 0.0 in
12:45 20.3 °F 14.8 °F 1005.0 in SSW 6.4 mph 17.7 mph 71 % 0.0 in
13:00 20.8 °F 14.5 °F 1004.6 in SSW 8.0 mph 22.5 mph 67 % 0.0 in
13:15 20.4 °F 14.3 °F 1005.0 in SSW 9.7 mph 22.5 mph 68 % 0.0 in
13:30 20.0 °F 13.9 °F 1005.0 in SSW 8.0 mph 19.3 mph 68 % 0.0 in
14:00 21.3 °F 13.7 °F 1005.0 in Calm     62 % 0.0 in
14:15 21.6 °F 14.2 °F 1005.0 in Calm     63 % 0.0 in
14:30 21.7 °F 13.9 °F 1005.3 in Calm     61 % 0.0 in
14:45 21.2 °F 13.1 °F 1005.3 in Calm     60 % 0.0 in
15:00 21.9 °F 13.0 °F 1005.3 in Calm     57 % 0.0 in
15:15 22.2 °F 12.4 °F 1005.3 in Calm     54 % 0.0 in
15:30 22.1 °F 12.6 °F 1005.6 in Calm     55 % 0.0 in
15:45 21.9 °F 11.9 °F 1005.6 in Calm     53 % 0.0 in
16:00 22.1 °F 12.6 °F 1005.6 in Calm     55 % 0.0 in
16:15 21.8 °F 12.4 °F 1005.3 in Calm     55 % 0.0 in
16:30 22.2 °F 12.4 °F 1005.6 in Calm     54 % 0.0 in
16:45 22.3 °F 12.0 °F 1005.3 in Calm     52 % 0.0 in
17:00 22.4 °F 11.8 °F 1005.3 in Calm     51 % 0.0 in
17:15 22.2 °F 11.2 °F 1005.3 in Calm     50 % 0.0 in
17:30 21.9 °F 11.0 °F 1005.3 in Calm     50 % 0.0 in
17:45 22.3 °F 12.2 °F 1005.3 in Calm     53 % 0.0 in
18:00 22.0 °F 11.4 °F 1005.3 in Calm     51 % 0.0 in
18:15 21.8 °F 10.9 °F 1005.3 in Calm     50 % 0.0 in
18:30 21.8 °F 10.3 °F 1005.3 in Calm     48 % 0.0 in
18:45 21.4 °F 10.5 °F 1005.3 in Calm     50 % 0.0 in
19:00 21.2 °F 9.7 °F 1005.3 in Calm     48 % 0.0 in
19:15 21.1 °F 9.9 °F 1005.6 in Calm     49 % 0.0 in
19:30 20.8 °F 10.0 °F 1005.6 in Calm     50 % 0.0 in
19:45 20.4 °F 10.5 °F 1005.6 in Calm     53 % 0.0 in
20:00 20.1 °F 10.2 °F 1005.6 in Calm     53 % 0.0 in
20:15 19.8 °F 10.8 °F 1005.6 in Calm     56 % 0.0 in
20:30 19.5 °F 10.8 °F 1005.6 in Calm     57 % 0.0 in
20:45 19.3 °F 10.8 °F 1005.6 in Calm     58 % 0.0 in
21:00 19.0 °F 11.1 °F 1005.6 in Calm     60 % 0.0 in
21:15 18.6 °F 11.2 °F 1005.6 in Calm     62 % 0.0 in
21:30 18.3 °F 11.8 °F 1005.6 in Calm     66 % 0.0 in
21:45 17.8 °F 12.0 °F 1005.3 in Calm     69 % 0.0 in
22:00 17.2 °F 12.3 °F 1005.3 in Calm     73 % 0.0 in
22:15 16.1 °F 12.0 °F 1005.3 in Calm     77 % 0.0 in
22:30 15.3 °F 12.0 °F 1005.6 in Calm     81 % 0.0 in
22:45 14.7 °F 11.6 °F 1005.6 in Calm     82 % 0.0 in
23:00 13.9 °F 11.3 °F 1005.6 in Calm     84 % 0.0 in
23:15 13.2 °F 10.9 °F 1005.6 in Calm     86 % 0.0 in
23:30 12.6 °F 10.5 °F 1005.6 in Calm     87 % 0.0 in
23:45 12.2 °F 10.5 °F 1005.6 in Calm     89 % 0.0 in
Esan sääasema
Terveisin Weather Underground - 2.75 mb

Alkuperäinen skripti  Jim McMurry - jmcmurry@mwt.net Sovitettu myös templatelle  Wim van der Kuil - Leuven-Template.eu

Laitteet joita käytämme:

Sääasema
Davis VP2

Sääasemaohjelma
Cumulus

Sääaseman tietokone
Asus EeePC

Palveluntarjoaja
Suncomet

Davis VP2

Cumulus

Asus EeePC

Suncomet